Time;durP1;ratioP1;P1;durP2;ratioP2;P2;SDS_P1;SDS_P2;PMS_P1;PMS_P2;Temp;Humidity;BMP_temperature;BMP_pressure;BME280_temperature;BME280_humidity;BME280_pressure;Samples;Min_cycle;Max_cycle;Signal;HPM_P1;HPM_P2
2021/11/04 00:00:28;;;;;;;9.43;1.75;;;;;;;;;;5066378;28;20511;-67
2021/11/04 00:02:55;;;;;;;10.15;1.75;;;;;;;;;;5069195;28;20649;-67
2021/11/04 00:05:21;;;;;;;6.05;1.25;;;;;;;;;;5066560;28;20116;-67
2021/11/04 00:07:50;;;;;;;4.07;1.92;;;;;;;;;;5069619;28;20107;-67
2021/11/04 00:10:16;;;;;;;4.38;1.60;;;;;;;;;;5069350;28;20488;-67
2021/11/04 00:12:42;;;;;;;3.47;1.70;;;;;;;;;;5068717;28;20052;-67
2021/11/04 00:15:09;;;;;;;3.67;1.75;;;;;;;;;;5065168;28;20017;-67
2021/11/04 00:17:37;;;;;;;9.32;1.80;;;;;;;;;;5068516;28;20397;-67
2021/11/04 00:20:05;;;;;;;2.58;1.35;;;;;;;;;;5069500;28;20025;-67
2021/11/04 00:22:31;;;;;;;2.58;1.50;;;;;;;;;;5066946;28;20024;-67
2021/11/04 00:24:57;;;;;;;8.57;2.10;;;;;;;;;;5067423;28;20028;-67
2021/11/04 00:27:23;;;;;;;3.03;1.52;;;;;;;;;;5070085;28;20081;-67
2021/11/04 00:29:49;;;;;;;6.55;2.28;;;;;;;;;;5066378;28;20107;-67
2021/11/04 00:32:15;;;;;;;6.30;2.33;;;;;;;;;;5071303;28;20035;-67
2021/11/04 00:34:41;;;;;;;6.15;1.70;;;;;;;;;;5067495;28;20025;-67
2021/11/04 00:37:07;;;;;;;7.25;1.80;;;;;;;;;;5066765;28;20024;-67
2021/11/04 00:39:33;;;;;;;5.90;1.80;;;;;;;;;;5050624;28;20098;-67
2021/11/04 00:41:59;;;;;;;5.47;1.85;;;;;;;;;;5053695;28;20082;-68
2021/11/04 00:44:25;;;;;;;4.57;1.83;;;;;;;;;;5067172;28;20028;-67
2021/11/04 00:46:52;;;;;;;3.40;1.90;;;;;;;;;;5069338;28;20059;-67
2021/11/04 00:49:18;;;;;;;9.07;2.00;;;;;;;;;;5067095;28;20033;-67
2021/11/04 00:51:44;;;;;;;4.10;2.15;;;;;;;;;;5051996;28;20050;-67
2021/11/04 00:54:10;;;;;;;5.50;1.95;;;;;;;;;;5070327;28;20028;-67
2021/11/04 00:56:36;;;;;;;2.88;1.98;;;;;;;;;;5051923;28;20028;-67
2021/11/04 00:59:03;;;;;;;2.38;1.77;;;;;;;;;;5066724;28;20028;-68
2021/11/04 01:01:29;;;;;;;3.28;1.80;;;;;;;;;;5067705;28;20031;-68
2021/11/04 01:03:55;;;;;;;3.17;1.98;;;;;;;;;;5067254;28;20589;-67
2021/11/04 01:06:22;;;;;;;2.28;1.80;;;;;;;;;;5068134;28;20036;-67
2021/11/04 01:08:48;;;;;;;;;;;;;;;;;;5065583;28;20017;-68
2021/11/04 01:11:14;;;;;;;;;;;;;;;;;;5069191;28;20630;-68
2021/11/04 01:13:39;;;;;;;;;;;;;;;;;;5069531;28;19916;-68
2021/11/04 01:16:05;;;;;;;;;;;;;;;;;;5070446;28;19913;-68
2021/11/04 01:18:31;;;;;;;;;;;;;;;;;;5068714;28;19920;-68
2021/11/04 01:20:57;;;;;;;;;;;;;;;;;;5063384;28;19909;-68
2021/11/04 01:23:23;;;;;;;;;;;;;;;;;;5073389;28;20010;-68
2021/11/04 01:25:49;;;;;;;;;;;;;;;;;;5075172;28;19956;-68
2021/11/04 01:28:16;;;;;;;;;;;;;;;;;;5054297;28;19944;-68
2021/11/04 01:30:41;;;;;;;;;;;;;;;;;;5072670;28;19913;-68
2021/11/04 01:33:07;;;;;;;;;;;;;;;;;;5073490;28;19944;-67
2021/11/04 01:35:35;;;;;;;;;;;;;;;;;;5072970;28;19948;-67
2021/11/04 01:38:01;;;;;;;;;;;;;;;;;;5063766;28;19919;-68
2021/11/04 01:40:27;;;;;;;;;;;;;;;;;;5073156;28;19908;-68
2021/11/04 01:42:53;;;;;;;;;;;;;;;;;;5071104;28;19919;-68
2021/11/04 01:45:19;;;;;;;;;;;;;;;;;;5073328;28;19908;-68
2021/11/04 01:47:46;;;;;;;;;;;;;;;;;;5076223;28;19999;-68
2021/11/04 01:50:12;;;;;;;;;;;;;;;;;;5053885;28;19912;-67
2021/11/04 01:52:38;;;;;;;;;;;;;;;;;;5071204;28;19954;-68
2021/11/04 01:55:04;;;;;;;;;;;;;;;;;;5055843;28;19908;-68
2021/11/04 01:57:30;;;;;;;;;;;;;;;;;;5064753;28;19908;-68
2021/11/04 01:59:56;;;;;;;;;;;;;;;;;;5070506;28;19944;-67
2021/11/04 02:02:22;;;;;;;;;;;;;;;;;;5071599;28;20017;-67
2021/11/04 02:04:47;;;;;;;;;;;;;;;;;;5053882;28;19960;-67
2021/11/04 02:07:13;;;;;;;;;;;;;;;;;;5072416;28;19952;-68
2021/11/04 02:09:39;;;;;;;;;;;;;;;;;;5071865;28;19943;-67
2021/11/04 02:12:05;;;;;;;;;;;;;;;;;;5068990;28;19908;-68
2021/11/04 02:14:31;;;;;;;;;;;;;;;;;;5071480;28;19995;-67
2021/11/04 02:16:57;;;;;;;;;;;;;;;;;;5072158;28;19953;-67
2021/11/04 02:19:23;;;;;;;;;;;;;;;;;;5071920;28;19963;-67
2021/11/04 02:21:49;;;;;;;;;;;;;;;;;;5072799;28;19996;-67
2021/11/04 02:24:15;;;;;;;;;;;;;;;;;;5071367;28;19962;-67
2021/11/04 02:26:42;;;;;;;;;;;;;;;;;;5066788;28;19970;-67
2021/11/04 02:29:08;;;;;;;;;;;;;;;;;;5070136;28;20372;-67
2021/11/04 02:31:34;;;;;;;;;;;;;;;;;;5071216;28;19943;-67
2021/11/04 02:33:59;;;;;;;;;;;;;;;;;;5070765;28;20388;-67
2021/11/04 02:36:25;;;;;;;;;;;;;;;;;;5072140;28;19951;-67
2021/11/04 02:38:51;;;;;;;;;;;;;;;;;;5069946;28;20284;-67
2021/11/04 02:41:17;;;;;;;;;;;;;;;;;;5064713;28;19915;-67
2021/11/04 02:43:43;;;;;;;;;;;;;;;;;;5067125;28;19935;-67
2021/11/04 02:46:09;;;;;;;;;;;;;;;;;;5072191;28;19959;-67
2021/11/04 02:48:35;;;;;;;;;;;;;;;;;;5070380;28;19940;-67
2021/11/04 02:51:01;;;;;;;;;;;;;;;;;;5071845;28;20007;-67
2021/11/04 02:53:28;;;;;;;;;;;;;;;;;;5070148;28;19944;-67
2021/11/04 02:55:54;;;;;;;;;;;;;;;;;;5071979;28;20288;-67
2021/11/04 02:58:20;;;;;;;;;;;;;;;;;;5070743;28;19912;-67
2021/11/04 03:00:46;;;;;;;;;;;;;;;;;;5071695;28;19916;-67
2021/11/04 03:03:12;;;;;;;;;;;;;;;;;;5069362;28;19987;-67
2021/11/04 03:05:38;;;;;;;;;;;;;;;;;;5065480;28;20388;-67
2021/11/04 03:08:03;;;;;;;;;;;;;;;;;;5069543;28;20345;-67
2021/11/04 03:10:29;;;;;;;;;;;;;;;;;;5077083;28;20337;-67
2021/11/04 03:12:55;;;;;;;;;;;;;;;;;;5071800;28;20475;-67
2021/11/04 03:15:21;;;;;;;;;;;;;;;;;;5072198;28;19919;-67
2021/11/04 03:17:48;;;;;;;;;;;;;;;;;;5061707;28;19913;-67
2021/11/04 03:20:14;;;;;;;;;;;;;;;;;;5070904;28;20372;-67
2021/11/04 03:22:39;;;;;;;;;;;;;;;;;;5072674;28;19909;-67
2021/11/04 03:25:05;;;;;;;;;;;;;;;;;;5070286;28;20046;-68
2021/11/04 03:27:32;;;;;;;;;;;;;;;;;;5052888;28;19954;-67
2021/11/04 03:29:57;;;;;;;;;;;;;;;;;;5065933;28;20376;-67
2021/11/04 03:32:23;;;;;;;;;;;;;;;;;;5070868;28;19954;-67
2021/11/04 03:34:50;;;;;;;;;;;;;;;;;;5068885;28;20345;-67
2021/11/04 03:37:16;;;;;;;;;;;;;;;;;;5070178;28;20286;-67
2021/11/04 03:39:43;;;;;;;;;;;;;;;;;;5069942;28;19950;-67
2021/11/04 03:42:08;;;;;;;;;;;;;;;;;;5069144;28;19916;-67
2021/11/04 03:44:34;;;;;;;;;;;;;;;;;;5066228;28;19915;-67
2021/11/04 03:47:00;;;;;;;;;;;;;;;;;;5066432;28;20045;-67
2021/11/04 03:49:29;;;;;;;;;;;;;;;;;;5067303;28;19947;-67
2021/11/04 03:51:55;;;;;;;;;;;;;;;;;;5068258;28;19916;-67
2021/11/04 03:54:22;;;;;;;;;;;;;;;;;;5070838;28;20386;-67
2021/11/04 03:56:48;;;;;;;;;;;;;;;;;;5068560;28;19954;-67
2021/11/04 03:59:14;;;;;;;;;;;;;;;;;;5067781;28;19947;-67
2021/11/04 04:01:40;;;;;;;;;;;;;;;;;;5069496;28;19951;-67
2021/11/04 04:04:05;;;;;;;;;;;;;;;;;;5069601;28;19946;-67
2021/11/04 04:06:32;;;;;;;;;;;;;;;;;;5070601;28;19963;-68
2021/11/04 04:08:58;;;;;;;;;;;;;;;;;;5067934;28;19915;-67
2021/11/04 04:11:24;;;;;;;;;;;;;;;;;;5070963;28;19920;-67
2021/11/04 04:13:55;;;;;;;;;;;;;;;;;;5069709;28;19908;-67
2021/11/04 04:16:21;;;;;;;;;;;;;;;;;;5070515;28;19915;-67
2021/11/04 04:18:47;;;;;;;;;;;;;;;;;;5067144;28;19999;-67
2021/11/04 04:21:13;;;;;;;;;;;;;;;;;;5070546;28;20441;-67
2021/11/04 04:23:39;;;;;;;;;;;;;;;;;;5052450;28;20005;-67
2021/11/04 04:26:05;;;;;;;5.13;1.20;;;;;;;;;;5069738;28;20549;-67
2021/11/04 04:28:31;;;;;;;3.42;1.38;;;;;;;;;;5067655;28;20401;-67
2021/11/04 04:30:57;;;;;;;;;;;;;;;;;;5070394;28;20370;-67
2021/11/04 04:33:23;;;;;;;;;;;;;;;;;;5069392;28;19914;-67
2021/11/04 04:35:51;;;;;;;;;;;;;;;;;;5068467;28;20054;-67
2021/11/04 04:38:17;;;;;;;;;;;;;;;;;;5068249;28;19909;-67
2021/11/04 04:40:43;;;;;;;;;;;;;;;;;;5065775;28;19951;-66
2021/11/04 04:43:09;;;;;;;;;;;;;;;;;;5051557;28;20400;-67
2021/11/04 04:45:35;;;;;;;6.15;1.27;;;;;;;;;;5069576;28;20364;-67
2021/11/04 04:48:01;;;;;;;;;;;;;;;;;;5062483;28;20060;-67
2021/11/04 04:50:27;;;;;;;4.70;1.20;;;;;;;;;;5069154;28;20403;-67
2021/11/04 04:52:53;;;;;;;2.20;1.17;;;;;;;;;;5068509;28;20409;-67
2021/11/04 04:55:19;;;;;;;5.07;1.35;;;;;;;;;;5064293;28;20513;-67
2021/11/04 04:57:45;;;;;;;2.13;1.20;;;;;;;;;;5069802;28;20020;-67
2021/11/04 05:00:12;;;;;;;5.57;1.45;;;;;;;;;;5073667;28;20035;-67
2021/11/04 05:02:42;;;;;;;3.05;1.20;;;;;;;;;;5072874;28;20449;-67
2021/11/04 05:05:09;;;;;;;2.55;1.27;;;;;;;;;;5073834;28;20275;-67
2021/11/04 05:07:35;;;;;;;3.75;1.40;;;;;;;;;;5072403;28;20028;-67
2021/11/04 05:10:02;;;;;;;1.38;1.17;;;;;;;;;;5068204;28;20032;-67
2021/11/04 05:12:28;;;;;;;4.95;1.27;;;;;;;;;;5073493;28;20423;-67
2021/11/04 05:14:54;;;;;;;4.00;1.40;;;;;;;;;;5063895;28;20078;-67
2021/11/04 05:17:20;;;;;;;5.50;1.30;;;;;;;;;;5073330;28;20076;-66
2021/11/04 05:19:46;;;;;;;6.13;1.52;;;;;;;;;;5062124;28;20614;-67
2021/11/04 05:22:12;;;;;;;3.75;1.60;;;;;;;;;;5074043;28;20115;-67
2021/11/04 05:24:38;;;;;;;4.63;1.35;;;;;;;;;;5077051;28;20032;-67
2021/11/04 05:27:05;;;;;;;1.77;1.20;;;;;;;;;;5064180;28;20044;-67
2021/11/04 05:29:32;;;;;;;1.90;1.20;;;;;;;;;;5068389;28;20166;-67
2021/11/04 05:31:59;;;;;;;2.50;1.30;;;;;;;;;;5064528;28;20477;-67
2021/11/04 05:34:25;;;;;;;5.68;1.70;;;;;;;;;;5072227;28;20021;-67
2021/11/04 05:36:51;;;;;;;6.70;2.38;;;;;;;;;;5070433;28;20111;-67
2021/11/04 05:39:17;;;;;;;8.48;2.38;;;;;;;;;;5072232;28;20024;-67
2021/11/04 05:41:43;;;;;;;7.72;2.63;;;;;;;;;;5072252;28;20236;-67
2021/11/04 05:44:09;;;;;;;7.57;3.33;;;;;;;;;;5050482;28;20540;-67
2021/11/04 05:46:35;;;;;;;8.00;3.47;;;;;;;;;;5071345;28;20028;-67
2021/11/04 05:49:01;;;;;;;10.52;4.88;;;;;;;;;;5051634;28;20025;-67
2021/11/04 05:51:27;;;;;;;8.95;4.40;;;;;;;;;;5070157;28;20476;-67
2021/11/04 05:53:53;;;;;;;10.05;5.28;;;;;;;;;;5071536;28;20036;-67
2021/11/04 05:56:19;;;;;;;9.85;5.57;;;;;;;;;;5071887;28;20378;-67
2021/11/04 05:58:45;;;;;;;9.88;5.05;;;;;;;;;;5069615;28;20119;-67
2021/11/04 06:01:11;;;;;;;6.90;4.50;;;;;;;;;;5070446;28;20040;-66
2021/11/04 06:03:38;;;;;;;9.30;3.60;;;;;;;;;;5072445;28;20043;-66
2021/11/04 06:06:04;;;;;;;8.30;3.97;;;;;;;;;;5068300;28;20451;-67
2021/11/04 06:08:30;;;;;;;7.28;3.30;;;;;;;;;;5065600;28;20025;-67
2021/11/04 06:10:56;;;;;;;6.95;3.28;;;;;;;;;;5053346;28;20753;-66
2021/11/04 06:13:22;;;;;;;7.22;3.30;;;;;;;;;;5067061;28;20029;-67
2021/11/04 06:15:48;;;;;;;8.95;2.95;;;;;;;;;;5055124;28;20033;-67
2021/11/04 06:18:14;;;;;;;3.65;2.30;;;;;;;;;;5066900;28;20311;-67
2021/11/04 06:20:40;;;;;;;4.68;2.25;;;;;;;;;;5050942;28;20040;-67
2021/11/04 06:23:06;;;;;;;7.50;2.20;;;;;;;;;;5070541;28;20097;-67
2021/11/04 06:25:32;;;;;;;5.10;2.25;;;;;;;;;;5137623;22;20056;-67
2021/11/04 06:27:58;;;;;;;8.45;2.10;;;;;;;;;;5047961;28;20075;-67
2021/11/04 06:30:24;;;;;;;5.32;2.00;;;;;;;;;;5050680;28;20391;-67
2021/11/04 06:32:50;;;;;;;5.82;2.20;;;;;;;;;;5045057;28;20021;-66
2021/11/04 06:35:16;;;;;;;4.68;1.98;;;;;;;;;;5046051;28;20033;-67
2021/11/04 06:37:42;;;;;;;7.55;2.40;;;;;;;;;;5047790;28;20082;-67
2021/11/04 06:40:09;;;;;;;4.93;2.15;;;;;;;;;;5043367;28;20036;-67
2021/11/04 06:42:36;;;;;;;5.68;2.28;;;;;;;;;;5040049;28;20124;-67
2021/11/04 06:45:02;;;;;;;6.13;2.30;;;;;;;;;;5049137;28;20029;-67
2021/11/04 06:47:47;;;;;;;13.25;2.85;;;;;;;;;;5056441;28;20029;-67
2021/11/04 06:50:13;;;;;;;4.55;2.25;;;;;;;;;;5046176;28;20074;-67
2021/11/04 06:52:46;;;;;;;5.40;2.38;;;;;;;;;;5042074;28;20035;-67
2021/11/04 06:55:12;;;;;;;8.77;2.30;;;;;;;;;;5048276;28;20063;-66
2021/11/04 06:57:42;;;;;;;10.90;2.58;;;;;;;;;;5047086;28;20041;-66
2021/11/04 07:00:09;;;;;;;5.20;2.00;;;;;;;;;;5048500;28;20175;-67
2021/11/04 07:02:37;;;;;;;11.95;2.50;;;;;;;;;;5051971;28;20025;-66
2021/11/04 07:05:04;;;;;;;6.57;2.20;;;;;;;;;;5053575;28;20031;-66
2021/11/04 07:07:38;;;;;;;7.15;2.58;;;;;;;;;;5050074;28;20282;-67
2021/11/04 07:10:04;;;;;;;11.98;2.78;;;;;;;;;;5047577;28;20023;-66
2021/11/04 07:12:30;;;;;;;8.68;2.42;;;;;;;;;;5050256;28;20031;-66
2021/11/04 07:15:00;;;;;;;7.72;2.58;;;;;;;;;;5050282;28;20060;-67
2021/11/04 07:17:26;;;;;;;11.65;4.47;;;;;;;;;;5051100;28;20025;-66
2021/11/04 07:19:52;;;;;;;4.78;2.30;;;;;;;;;;5047440;28;20024;-67
2021/11/04 07:22:18;;;;;;;15.15;2.85;;;;;;;;;;5051372;28;20032;-66
2021/11/04 07:24:46;;;;;;;8.23;2.70;;;;;;;;;;5051330;28;20041;-67
2021/11/04 07:27:17;;;;;;;8.57;2.72;;;;;;;;;;5048047;28;20035;-66
2021/11/04 07:29:45;;;;;;;9.60;2.55;;;;;;;;;;5054711;28;20021;-67
2021/11/04 07:32:14;;;;;;;5.00;2.47;;;;;;;;;;5057895;28;20097;-67
2021/11/04 07:34:43;;;;;;;4.22;2.00;;;;;;;;;;5050435;28;20033;-67
2021/11/04 07:37:11;;;;;;;10.27;3.22;;;;;;;;;;5049815;28;20029;-66
2021/11/04 07:39:38;;;;;;;7.82;2.40;;;;;;;;;;5044093;28;20029;-67
2021/11/04 07:42:06;;;;;;;10.13;2.40;;;;;;;;;;5047032;28;20112;-66
2021/11/04 07:44:32;;;;;;;6.05;2.42;;;;;;;;;;5046974;28;20025;-66
2021/11/04 07:46:58;;;;;;;7.43;2.45;;;;;;;;;;5045611;28;20480;-67
2021/11/04 07:49:24;;;;;;;13.10;2.60;;;;;;;;;;5043288;28;20021;-67
2021/11/04 07:51:52;;;;;;;6.80;1.90;;;;;;;;;;5048126;28;20047;-66
2021/11/04 07:54:18;;;;;;;8.07;2.20;;;;;;;;;;5049147;28;20112;-66
2021/11/04 07:56:44;;;;;;;7.85;2.38;;;;;;;;;;5049451;28;20033;-67
2021/11/04 07:59:10;;;;;;;13.75;2.15;;;;;;;;;;5048560;28;20029;-67
2021/11/04 08:01:36;;;;;;;5.85;2.10;;;;;;;;;;5054008;28;20033;-67
2021/11/04 08:04:02;;;;;;;11.98;2.60;;;;;;;;;;5051439;28;20048;-67
2021/11/04 08:06:28;;;;;;;9.95;2.20;;;;;;;;;;5048791;28;20511;-66
2021/11/04 08:08:54;;;;;;;8.88;2.05;;;;;;;;;;5043018;28;20040;-66
2021/11/04 08:11:20;;;;;;;11.73;2.40;;;;;;;;;;5047709;28;20039;-67
2021/11/04 08:13:46;;;;;;;13.80;3.35;;;;;;;;;;5046038;28;20025;-66
2021/11/04 08:16:13;;;;;;;4.28;2.38;;;;;;;;;;5050571;28;20048;-67
2021/11/04 08:18:39;;;;;;;10.90;3.22;;;;;;;;;;5047899;28;20032;-66
2021/11/04 08:21:05;;;;;;;7.97;2.80;;;;;;;;;;5046708;28;20028;-67
2021/11/04 08:23:31;;;;;;;9.63;2.47;;;;;;;;;;5049583;28;20055;-66
2021/11/04 08:25:57;;;;;;;14.18;3.92;;;;;;;;;;5046731;28;20044;-66
2021/11/04 08:28:23;;;;;;;11.13;2.65;;;;;;;;;;5043390;28;20386;-67
2021/11/04 08:30:49;;;;;;;6.53;2.33;;;;;;;;;;5046470;28;20029;-67
2021/11/04 08:33:16;;;;;;;7.90;2.88;;;;;;;;;;5046563;28;20040;-66
2021/11/04 08:35:42;;;;;;;12.82;2.95;;;;;;;;;;5050149;28;20399;-67
2021/11/04 08:38:08;;;;;;;8.95;2.80;;;;;;;;;;5045470;28;20023;-67
2021/11/04 08:40:34;;;;;;;10.27;2.80;;;;;;;;;;5047663;28;20041;-66
2021/11/04 08:43:02;;;;;;;11.88;2.60;;;;;;;;;;5059214;28;20075;-67
2021/11/04 08:45:28;;;;;;;;;;;;;;;;;;5048415;28;20032;-66
2021/11/04 08:47:54;;;;;;;7.93;2.67;;;;;;;;;;5045436;28;21345;-67
2021/11/04 08:50:20;;;;;;;10.23;2.20;;;;;;;;;;5049237;28;20025;-67
2021/11/04 08:52:51;;;;;;;3.53;2.58;;;;;;;;;;5050130;28;20226;-67
2021/11/04 08:55:17;;;;;;;5.47;2.67;;;;;;;;;;5047376;28;20029;-66
2021/11/04 08:57:44;;;;;;;6.05;2.72;;;;;;;;;;5045181;28;20292;-67
2021/11/04 09:00:10;;;;;;;14.27;3.67;;;;;;;;;;5043412;28;20056;-67
2021/11/04 09:02:37;;;;;;;7.78;2.78;;;;;;;;;;5046560;28;20053;-67
2021/11/04 09:05:07;;;;;;;7.63;3.20;;;;;;;;;;5046970;28;20029;-67
2021/11/04 09:07:33;;;;;;;12.70;4.07;;;;;;;;;;5048033;28;20114;-66
2021/11/04 09:10:00;;;;;;;8.40;3.03;;;;;;;;;;5042076;28;20021;-67
2021/11/04 09:12:26;;;;;;;5.43;2.63;;;;;;;;;;5048218;28;20443;-66
2021/11/04 09:14:53;;;;;;;7.38;2.95;;;;;;;;;;5046124;28;20029;-67
2021/11/04 09:17:19;;;;;;;8.10;3.20;;;;;;;;;;5048297;28;20040;-67
2021/11/04 09:19:45;;;;;;;6.00;3.00;;;;;;;;;;5044411;28;20126;-66
2021/11/04 09:22:12;;;;;;;10.25;3.10;;;;;;;;;;5049509;28;20398;-67
2021/11/04 09:24:38;;;;;;;17.02;4.10;;;;;;;;;;5042157;28;20751;-67
2021/11/04 09:27:05;;;;;;;21.95;3.92;;;;;;;;;;5046693;28;20048;-67
2021/11/04 09:29:31;;;;;;;15.85;3.40;;;;;;;;;;5038012;28;20025;-67
2021/11/04 09:31:58;;;;;;;14.05;3.78;;;;;;;;;;5049011;28;20545;-67
2021/11/04 09:34:24;;;;;;;19.38;3.40;;;;;;;;;;5049254;28;20021;-68
2021/11/04 09:36:50;;;;;;;12.30;3.25;;;;;;;;;;5051638;28;20083;-67
2021/11/04 09:39:16;;;;;;;14.55;2.83;;;;;;;;;;5051021;28;20021;-68
2021/11/04 09:41:43;;;;;;;13.32;3.38;;;;;;;;;;5048935;28;20040;-68
2021/11/04 09:44:10;;;;;;;13.13;3.13;;;;;;;;;;5039988;28;20086;-68
2021/11/04 09:46:37;;;;;;;17.52;3.15;;;;;;;;;;5048876;28;20098;-67
2021/11/04 09:49:03;;;;;;;16.08;3.55;;;;;;;;;;5050026;28;20025;-67
2021/11/04 09:51:30;;;;;;;13.20;3.65;;;;;;;;;;5050317;28;20048;-68
2021/11/04 09:53:56;;;;;;;14.63;2.58;;;;;;;;;;5056187;28;20029;-68
2021/11/04 09:56:22;;;;;;;23.23;6.53;;;;;;;;;;5052250;28;20115;-68
2021/11/04 09:58:48;;;;;;;13.82;3.17;;;;;;;;;;5048937;28;20052;-68
2021/11/04 10:01:25;;;;;;;15.85;2.88;;;;;;;;;;5050925;28;20028;-68
2021/11/04 10:03:52;;;;;;;21.15;3.78;;;;;;;;;;5049682;28;20029;-67
2021/11/04 10:06:24;;;;;;;15.38;3.10;;;;;;;;;;5043268;28;20029;-67
2021/11/04 10:09:03;;;;;;;10.68;2.65;;;;;;;;;;5047998;28;20450;-67
2021/11/04 10:11:30;;;;;;;17.15;3.83;;;;;;;;;;5066896;28;20025;-67
2021/11/04 10:14:01;;;;;;;17.80;2.45;;;;;;;;;;5051534;28;20378;-66
2021/11/04 10:16:27;;;;;;;14.93;3.40;;;;;;;;;;5060804;28;20033;-67
2021/11/04 10:18:53;;;;;;;13.63;3.10;;;;;;;;;;5047111;28;20316;-67
2021/11/04 10:21:23;;;;;;;12.85;3.17;;;;;;;;;;5038703;28;20391;-67
2021/11/04 10:23:50;;;;;;;12.35;2.88;;;;;;;;;;5048443;28;20029;-67
2021/11/04 10:26:17;;;;;;;15.45;3.00;;;;;;;;;;5051842;28;20462;-66
2021/11/04 10:28:47;;;;;;;15.07;4.15;;;;;;;;;;5048357;28;20025;-67
2021/11/04 10:31:15;;;;;;;16.70;2.83;;;;;;;;;;5047145;28;20104;-67
2021/11/04 10:33:42;;;;;;;22.48;3.97;;;;;;;;;;5049923;28;20029;-66
2021/11/04 10:36:14;;;;;;;11.80;2.53;;;;;;;;;;5054406;28;20032;-67
2021/11/04 10:38:46;;;;;;;10.57;3.30;;;;;;;;;;5047815;28;20029;-67
2021/11/04 10:41:12;;;;;;;;;;;;;;;;;;5051375;28;20033;-67
2021/11/04 10:43:39;;;;;;;15.68;3.20;;;;;;;;;;5051819;28;20330;-66
2021/11/04 10:46:07;;;;;;;17.10;3.85;;;;;;;;;;5047710;28;20029;-67
2021/11/04 10:48:36;;;;;;;21.48;3.72;;;;;;;;;;5047830;28;20025;-67
2021/11/04 10:51:02;;;;;;;13.20;3.42;;;;;;;;;;5042115;28;20027;-67
2021/11/04 10:53:28;;;;;;;15.70;3.88;;;;;;;;;;5050343;28;20037;-67
2021/11/04 10:55:55;;;;;;;22.08;3.28;;;;;;;;;;5049903;28;20032;-66
2021/11/04 10:58:32;;;;;;;18.52;3.58;;;;;;;;;;5047046;28;20023;-66
2021/11/04 11:00:58;;;;;;;13.73;3.15;;;;;;;;;;5049996;28;20094;-66
2021/11/04 11:03:25;;;;;;;6.68;2.60;;;;;;;;;;5065214;28;20029;-66
2021/11/04 11:05:55;;;;;;;13.63;2.92;;;;;;;;;;5051208;28;20021;-67
2021/11/04 11:08:22;;;;;;;11.45;3.00;;;;;;;;;;5049250;28;20017;-67
2021/11/04 11:10:48;;;;;;;14.38;3.13;;;;;;;;;;5051586;28;20021;-67
2021/11/04 11:13:14;;;;;;;17.35;3.65;;;;;;;;;;5049326;28;20025;-67
2021/11/04 11:15:41;;;;;;;15.52;3.20;;;;;;;;;;5049447;28;20033;-67
2021/11/04 11:18:09;;;;;;;12.32;3.28;;;;;;;;;;5041491;28;20021;-67
2021/11/04 11:20:42;;;;;;;22.25;5.07;;;;;;;;;;5049199;28;20036;-66
2021/11/04 11:23:08;;;;;;;12.40;4.18;;;;;;;;;;5051463;28;20043;-66
2021/11/04 11:25:38;;;;;;;15.82;4.30;;;;;;;;;;5052956;28;20045;-67
2021/11/04 11:28:04;;;;;;;17.05;3.97;;;;;;;;;;5038738;28;20471;-67
2021/11/04 11:30:30;;;;;;;11.13;3.67;;;;;;;;;;5051186;28;20021;-67
2021/11/04 11:33:16;;;;;;;15.45;3.85;;;;;;;;;;5047285;28;20044;-67
2021/11/04 11:35:42;;;;;;;7.65;3.30;;;;;;;;;;5049248;28;20443;-66
2021/11/04 11:38:08;;;;;;;19.88;6.80;;;;;;;;;;5042208;28;20668;-67
2021/11/04 11:40:38;;;;;;;14.57;3.78;;;;;;;;;;5048195;28;20013;-67
2021/11/04 11:43:05;;;;;;;10.63;4.43;;;;;;;;;;5045583;28;20020;-67
2021/11/04 11:45:33;;;;;;;13.02;3.25;;;;;;;;;;5046496;28;20491;-67
2021/11/04 11:48:17;;;;;;;33.38;4.28;;;;;;;;;;5046240;28;20047;-67
2021/11/04 11:50:44;;;;;;;15.07;3.30;;;;;;;;;;5044468;28;20065;-67
2021/11/04 11:53:23;;;;;;;16.50;4.00;;;;;;;;;;5043013;28;20112;-67
2021/11/04 11:55:50;;;;;;;22.92;4.65;;;;;;;;;;5049689;28;20029;-66
2021/11/04 11:58:23;;;;;;;18.38;4.43;;;;;;;;;;5044748;28;20257;-67
2021/11/04 12:00:52;;;;;;;12.13;3.88;;;;;;;;;;5047188;28;20379;-67
2021/11/04 12:03:37;;;;;;;12.13;3.78;;;;;;;;;;5048996;28;20369;-67
2021/11/04 12:06:07;;;;;;;17.73;4.25;;;;;;;;;;5041993;28;20502;-66
2021/11/04 12:08:35;;;;;;;13.20;4.33;;;;;;;;;;5047141;28;20017;-67
2021/11/04 12:11:02;;;;;;;19.02;5.80;;;;;;;;;;5042820;28;20104;-67
2021/11/04 12:13:42;;;;;;;17.30;4.47;;;;;;;;;;5049706;28;20577;-67
2021/11/04 12:16:18;;;;;;;25.42;5.30;;;;;;;;;;5035123;28;20298;-67
2021/11/04 12:18:51;;;;;;;22.50;5.60;;;;;;;;;;5045412;28;20102;-66
2021/11/04 12:21:22;;;;;;;20.38;3.60;;;;;;;;;;5050113;28;20395;-66
2021/11/04 12:23:48;;;;;;;17.23;3.50;;;;;;;;;;5047639;28;20067;-67
2021/11/04 12:26:15;;;;;;;12.05;4.50;;;;;;;;;;5049664;28;20053;-66
2021/11/04 12:28:42;;;;;;;15.38;5.55;;;;;;;;;;5053363;28;20502;-67
2021/11/04 12:31:34;;;;;;;4.63;2.85;;;;;;;;;;5049093;28;20029;-67
2021/11/04 12:34:00;;;;;;;;;;;;;;;;;;5043153;28;20041;-66
2021/11/04 12:36:36;;;;;;;26.05;4.47;;;;;;;;;;5047633;28;19908;-67
2021/11/04 12:39:04;;;;;;;12.82;4.82;;;;;;;;;;5047261;28;20630;-67
2021/11/04 12:41:30;;;;;;;19.77;5.07;;;;;;;;;;5048731;28;20115;-67
2021/11/04 12:44:05;;;;;;;14.57;4.30;;;;;;;;;;5047243;28;20116;-67
2021/11/04 12:46:32;;;;;;;17.27;5.70;;;;;;;;;;5047162;28;20466;-67
2021/11/04 12:49:03;;;;;;;12.63;4.75;;;;;;;;;;5047083;28;20036;-67
2021/11/04 12:51:43;;;;;;;17.05;4.75;;;;;;;;;;5049598;28;20028;-67
2021/11/04 12:54:12;;;;;;;17.23;4.72;;;;;;;;;;5047989;28;20048;-67
2021/11/04 12:56:49;;;;;;;11.80;4.03;;;;;;;;;;5049845;28;20632;-66
2021/11/04 12:59:33;;;;;;;20.48;5.05;;;;;;;;;;5042677;28;20112;-67
2021/11/04 13:02:13;;;;;;;14.20;5.20;;;;;;;;;;5049907;28;20414;-66
2021/11/04 13:04:44;;;;;;;26.83;6.80;;;;;;;;;;5053010;28;20040;-67
2021/11/04 13:07:18;;;;;;;19.17;5.18;;;;;;;;;;5054525;28;20029;-66
2021/11/04 13:09:48;;;;;;;13.35;5.03;;;;;;;;;;5042327;28;20051;-67
2021/11/04 13:12:16;;;;;;;17.73;4.78;;;;;;;;;;5054459;28;20027;-67
2021/11/04 13:14:53;;;;;;;19.95;4.88;;;;;;;;;;5047605;28;20128;-66
2021/11/04 13:17:21;;;;;;;20.58;5.65;;;;;;;;;;5044429;28;20052;-66
2021/11/04 13:19:55;;;;;;;17.88;5.03;;;;;;;;;;5046243;28;20043;-67
2021/11/04 13:22:21;;;;;;;16.08;5.93;;;;;;;;;;5051745;28;20391;-66
2021/11/04 13:24:47;;;;;;;11.45;4.43;;;;;;;;;;5055884;28;20064;-66
2021/11/04 13:27:15;;;;;;;12.80;5.97;;;;;;;;;;5052520;28;20495;-66
2021/11/04 13:29:51;;;;;;;14.80;5.30;;;;;;;;;;5040566;28;20453;-67
2021/11/04 13:32:18;;;;;;;16.45;6.00;;;;;;;;;;5039518;28;20060;-67
2021/11/04 13:34:44;;;;;;;14.30;4.50;;;;;;;;;;5052142;28;20021;-67
2021/11/04 13:37:20;;;;;;;17.90;5.40;;;;;;;;;;5052840;28;20032;-67
2021/11/04 13:39:47;;;;;;;15.57;4.28;;;;;;;;;;5045425;28;20029;-67
2021/11/04 13:42:31;;;;;;;22.20;5.70;;;;;;;;;;5052013;28;20562;-67
2021/11/04 13:45:12;;;;;;;11.00;4.40;;;;;;;;;;5049369;28;20037;-67
2021/11/04 13:47:39;;;;;;;14.57;4.82;;;;;;;;;;5050707;28;20171;-67
2021/11/04 13:50:07;;;;;;;18.48;6.28;;;;;;;;;;5049123;28;20097;-67
2021/11/04 13:52:36;;;;;;;16.92;5.18;;;;;;;;;;5052922;28;20108;-67
2021/11/04 13:55:04;;;;;;;17.42;5.05;;;;;;;;;;5048850;28;20027;-66
2021/11/04 13:57:30;;;;;;;17.00;5.97;;;;;;;;;;5054422;28;20031;-66
2021/11/04 13:59:57;;;;;;;18.77;5.57;;;;;;;;;;5049752;28;20033;-67
2021/11/04 14:02:25;;;;;;;20.25;6.10;;;;;;;;;;5050099;28;20041;-66
2021/11/04 14:04:58;;;;;;;18.55;5.65;;;;;;;;;;5055296;28;20025;-67
2021/11/04 14:07:25;;;;;;;18.85;6.57;;;;;;;;;;5051062;28;20119;-67
2021/11/04 14:09:58;;;;;;;19.60;6.15;;;;;;;;;;5052828;28;20279;-67
2021/11/04 14:12:26;;;;;;;23.95;6.13;;;;;;;;;;5060881;28;20047;-67
2021/11/04 14:14:54;;;;;;;19.23;4.85;;;;;;;;;;5052027;28;20059;-67
2021/11/04 14:17:23;;;;;;;20.95;5.05;;;;;;;;;;5050504;28;20037;-67
2021/11/04 14:19:51;;;;;;;13.40;5.47;;;;;;;;;;5052525;28;20170;-67
2021/11/04 14:22:17;;;;;;;17.67;5.53;;;;;;;;;;5055547;28;20052;-67
2021/11/04 14:24:43;;;;;;;18.17;5.30;;;;;;;;;;5049135;28;20044;-67
2021/11/04 14:27:10;;;;;;;22.50;6.18;;;;;;;;;;5049965;28;20507;-67
2021/11/04 14:29:36;;;;;;;16.27;5.65;;;;;;;;;;5048216;28;20115;-67
2021/11/04 14:32:02;;;;;;;19.33;4.97;;;;;;;;;;5052137;28;20021;-67
2021/11/04 14:34:28;;;;;;;19.33;6.15;;;;;;;;;;5050941;28;20026;-67
2021/11/04 14:36:54;;;;;;;23.40;4.72;;;;;;;;;;5050546;28;20041;-67
2021/11/04 14:39:21;;;;;;;29.63;5.90;;;;;;;;;;5047643;28;20025;-67
2021/11/04 14:41:47;;;;;;;20.08;6.25;;;;;;;;;;5057919;28;20025;-67
2021/11/04 14:44:13;;;;;;;22.45;4.70;;;;;;;;;;5060566;28;20027;-67
2021/11/04 14:46:43;;;;;;;16.80;4.90;;;;;;;;;;5067077;28;20525;-67
2021/11/04 14:49:10;;;;;;;20.85;4.80;;;;;;;;;;5049161;28;20514;-67
2021/11/04 14:51:37;;;;;;;23.38;4.95;;;;;;;;;;5051495;28;20021;-67
2021/11/04 14:54:03;;;;;;;18.38;4.20;;;;;;;;;;5056775;28;20491;-67
2021/11/04 14:56:29;;;;;;;25.67;5.18;;;;;;;;;;5054461;28;20024;-68
2021/11/04 14:58:55;;;;;;;27.83;5.07;;;;;;;;;;5047762;28;20055;-67
2021/11/04 15:01:23;;;;;;;18.80;4.57;;;;;;;;;;5054094;28;20031;-67
2021/11/04 15:03:49;;;;;;;19.80;5.47;;;;;;;;;;5059136;28;20485;-67
2021/11/04 15:06:15;;;;;;;24.35;6.25;;;;;;;;;;5057926;28;20063;-67